createdAt,value
2023-05-24T05:00:56.198Z,70.20
2023-05-24T05:01:56.156Z,70.20
2023-05-24T05:02:56.236Z,70.51
2023-05-24T05:03:56.113Z,71.22
2023-05-24T05:04:56.110Z,71.01
2023-05-24T05:05:56.081Z,70.92
2023-05-24T05:06:56.067Z,70.37
2023-05-24T05:07:56.074Z,70.40
2023-05-24T05:08:56.044Z,70.57
2023-05-24T05:09:56.034Z,70.47
2023-05-24T05:10:56.059Z,70.17
2023-05-24T05:12:01.029Z,70.06
2023-05-24T05:12:55.998Z,70.71
2023-05-24T05:13:55.991Z,70.17
2023-05-24T05:14:55.984Z,69.96
2023-05-24T05:15:55.987Z,70.20
2023-05-24T05:16:55.996Z,69.86
2023-05-24T05:17:55.958Z,70.17
2023-05-24T05:18:55.943Z,69.96
2023-05-24T05:19:55.947Z,69.35
2023-05-24T05:20:55.903Z,69.04
2023-05-24T05:21:55.901Z,69.04
2023-05-24T05:23:00.901Z,68.84
2023-05-24T05:23:55.876Z,68.91
2023-05-24T05:24:55.852Z,70.23
2023-05-24T05:25:55.843Z,69.11
2023-05-24T05:26:55.846Z,70.31
2023-05-24T05:27:55.844Z,68.91
2023-05-24T05:28:55.838Z,68.40
2023-05-24T05:29:55.802Z,67.15
2023-05-24T05:30:55.793Z,67.86
2023-05-24T05:31:55.788Z,66.33
2023-05-24T05:32:55.855Z,66.13
2023-05-24T05:34:00.816Z,67.02
2023-05-24T05:34:55.755Z,64.98
2023-05-24T05:35:55.731Z,65.49
2023-05-24T05:36:55.719Z,63.96
2023-05-24T05:37:55.716Z,65.56
2023-05-24T05:38:55.699Z,63.32
2023-05-24T05:39:55.706Z,63.76
2023-05-24T05:40:55.674Z,64.14
2023-05-24T05:41:55.668Z,64.98
2023-05-24T05:42:55.666Z,64.67
2023-05-24T05:43:55.646Z,64.98
2023-05-24T05:45:00.664Z,63.83
2023-05-24T05:45:55.692Z,63.35
2023-05-24T05:46:55.607Z,63.99
2023-05-24T05:47:55.690Z,64.32
2023-05-24T05:48:55.604Z,65.14
2023-05-24T05:49:55.575Z,65.14
2023-05-24T05:50:55.557Z,64.97
2023-05-24T05:51:55.573Z,65.89
2023-05-24T05:52:55.551Z,65.58
2023-05-24T05:53:55.532Z,66.70
2023-05-24T05:54:55.539Z,66.53
2023-05-24T05:56:00.542Z,66.53
2023-05-24T05:56:55.498Z,67.18
2023-05-24T05:57:55.494Z,66.86
2023-05-24T05:58:55.469Z,67.35
2023-05-24T05:59:55.512Z,66.97
2023-05-24T06:00:55.474Z,67.48
2023-05-24T06:01:55.480Z,67.18
2023-05-24T06:02:55.518Z,67.38
2023-05-24T06:03:55.528Z,67.38
2023-05-24T06:04:55.486Z,67.27
2023-05-24T06:05:55.400Z,67.61
2023-05-24T06:07:00.416Z,66.90
2023-05-24T06:07:55.364Z,66.86
2023-05-24T06:08:55.358Z,66.86
2023-05-24T06:09:55.362Z,66.46
2023-05-24T06:10:55.404Z,65.61
2023-05-24T06:11:55.342Z,64.79
2023-05-24T06:12:55.309Z,64.90
2023-05-24T06:13:55.297Z,63.78
2023-05-24T06:14:55.281Z,64.25
2023-05-24T06:15:55.332Z,64.15
2023-05-24T06:16:56.265Z,63.95
2023-05-24T06:18:00.327Z,63.71
2023-05-24T06:19:05.500Z,62.97
2023-05-24T06:19:55.266Z,62.56
2023-05-24T06:20:55.266Z,62.56
2023-05-24T06:21:55.228Z,62.97
2023-05-24T06:22:55.209Z,63.79
2023-05-24T06:23:55.188Z,63.20
2023-05-24T06:24:55.195Z,62.87
2023-05-24T06:25:55.158Z,63.58
2023-05-24T06:26:55.156Z,62.87
2023-05-24T06:27:55.156Z,63.38
2023-05-24T06:29:00.143Z,62.84
2023-05-24T06:29:55.213Z,61.93
2023-05-24T06:30:55.203Z,61.90
2023-05-24T06:31:55.126Z,61.59
2023-05-24T06:32:55.145Z,61.56
2023-05-24T06:34:03.781Z,61.20
2023-05-24T06:34:55.070Z,59.67
2023-05-24T06:35:55.048Z,59.01
2023-05-24T06:36:55.052Z,57.46
2023-05-24T06:37:55.038Z,56.79
2023-05-24T06:38:55.070Z,55.52
2023-05-24T06:40:00.101Z,54.71
2023-05-24T06:40:54.990Z,54.82
2023-05-24T06:41:54.976Z,55.45
2023-05-24T06:42:54.964Z,56.29
2023-05-24T06:43:55.003Z,56.92
2023-05-24T06:44:54.942Z,56.24
2023-05-24T06:45:54.956Z,56.98
2023-05-24T06:46:54.973Z,56.85
2023-05-24T06:47:54.968Z,56.95
2023-05-24T06:48:55.076Z,57.08
2023-05-24T06:49:54.892Z,57.28
2023-05-24T06:50:59.904Z,56.37
2023-05-24T06:51:55.250Z,56.98
2023-05-24T06:52:54.940Z,57.21
2023-05-24T06:53:54.922Z,56.29
2023-05-24T06:54:54.874Z,56.87
2023-05-24T06:55:56.924Z,55.27
2023-05-24T06:56:54.809Z,55.58
2023-05-24T06:57:54.864Z,54.90
2023-05-24T06:58:54.786Z,54.97
2023-05-24T06:59:54.776Z,56.32
2023-05-24T07:00:54.802Z,55.58
2023-05-24T07:02:01.994Z,56.29
2023-05-24T07:02:54.816Z,55.68
2023-05-24T07:03:54.756Z,55.88
2023-05-24T07:04:54.839Z,55.60
2023-05-24T07:05:54.704Z,55.81
2023-05-24T07:06:54.696Z,55.30
2023-05-24T07:07:54.697Z,55.10
2023-05-24T07:08:54.735Z,55.30
2023-05-24T07:09:54.691Z,55.00
2023-05-24T07:10:54.661Z,54.90
2023-05-24T07:11:54.655Z,55.10
2023-05-24T07:12:59.661Z,55.18
2023-05-24T07:13:54.612Z,54.18
2023-05-24T07:14:54.601Z,53.75
2023-05-24T07:15:54.606Z,54.05
2023-05-24T07:16:54.617Z,54.05
2023-05-24T07:17:54.603Z,53.04
2023-05-24T07:18:54.556Z,53.24
2023-05-24T07:19:54.571Z,53.42
2023-05-24T07:20:54.568Z,53.75
2023-05-24T07:21:54.642Z,53.34
2023-05-24T07:22:54.516Z,53.55
2023-05-24T07:23:59.583Z,53.24
2023-05-24T07:24:54.488Z,53.32
2023-05-24T07:25:54.482Z,52.20
2023-05-24T07:26:54.471Z,51.57
2023-05-24T07:27:54.470Z,51.06
2023-05-24T07:28:54.440Z,50.96
2023-05-24T07:29:54.437Z,52.08
2023-05-24T07:30:54.425Z,51.16
2023-05-24T07:31:54.523Z,51.98
2023-05-24T07:32:54.482Z,53.12
2023-05-24T07:33:54.401Z,52.40
2023-05-24T07:34:59.398Z,52.51
2023-05-24T07:35:54.389Z,52.12
2023-05-24T07:36:54.353Z,51.72
2023-05-24T07:37:54.341Z,52.56
2023-05-24T07:38:54.328Z,52.56
2023-05-24T07:39:54.399Z,51.62
2023-05-24T07:40:54.318Z,51.95
2023-05-24T07:41:54.337Z,51.92
2023-05-24T07:42:54.285Z,51.92
2023-05-24T07:43:54.277Z,52.23
2023-05-24T07:44:54.273Z,52.53
2023-05-24T07:45:59.373Z,52.03
2023-05-24T07:46:54.279Z,52.00
2023-05-24T07:47:56.704Z,51.59
2023-05-24T07:48:54.221Z,52.43
2023-05-24T07:49:54.224Z,52.23
2023-05-24T07:50:54.205Z,52.43
2023-05-24T07:51:54.195Z,52.61
2023-05-24T07:52:54.176Z,52.40
2023-05-24T07:53:54.171Z,52.10
2023-05-24T07:54:54.167Z,52.20
2023-05-24T07:55:54.186Z,51.70
2023-05-24T07:56:59.160Z,53.14
2023-05-24T07:57:54.150Z,52.94
2023-05-24T07:58:54.120Z,52.84
2023-05-24T07:59:54.138Z,53.45
2023-05-24T08:00:54.097Z,52.84
2023-05-24T08:01:54.080Z,53.42
2023-05-24T08:02:54.169Z,53.52
2023-05-24T08:03:54.151Z,52.99
2023-05-24T08:04:54.074Z,52.79
2023-05-24T08:05:54.034Z,53.19
2023-05-24T08:06:54.110Z,53.39
2023-05-24T08:07:59.033Z,53.60
2023-05-24T08:08:54.011Z,53.09
2023-05-24T08:09:53.986Z,52.79
2023-05-24T08:10:53.985Z,52.89
2023-05-24T08:11:54.075Z,53.39
2023-05-24T08:12:53.956Z,52.99
2023-05-24T08:13:53.958Z,52.99
2023-05-24T08:14:53.966Z,52.79
2023-05-24T08:15:53.986Z,52.69
2023-05-24T08:16:54.217Z,53.17
2023-05-24T08:17:53.957Z,51.95
2023-05-24T08:18:58.920Z,51.95
2023-05-24T08:19:53.903Z,51.62
2023-05-24T08:20:53.868Z,51.52
2023-05-24T08:21:53.850Z,52.03
2023-05-24T08:22:53.847Z,51.82
2023-05-24T08:23:53.850Z,52.33
2023-05-24T08:24:53.816Z,52.92
2023-05-24T08:25:53.803Z,51.72
2023-05-24T08:26:53.794Z,51.50
2023-05-24T08:27:53.826Z,51.60
2023-05-24T08:28:53.780Z,50.71
2023-05-24T08:29:58.814Z,50.81
2023-05-24T08:30:53.764Z,50.89
2023-05-24T08:31:53.778Z,50.68
2023-05-24T08:32:53.794Z,51.01
2023-05-24T08:33:53.715Z,51.01
2023-05-24T08:35:00.468Z,51.50
2023-05-24T08:35:53.713Z,51.90
2023-05-24T08:36:53.711Z,51.39
2023-05-24T08:37:53.688Z,51.70
2023-05-24T08:38:53.674Z,52.31
2023-05-24T08:39:53.643Z,51.39
2023-05-24T08:40:58.687Z,51.09
2023-05-24T08:42:07.936Z,50.79
2023-05-24T08:42:53.620Z,51.19
2023-05-24T08:43:53.653Z,50.79
2023-05-24T08:44:53.591Z,52.41
2023-05-24T08:45:53.596Z,52.11
2023-05-24T08:46:53.584Z,51.70
2023-05-24T08:47:53.672Z,52.11
2023-05-24T08:48:53.576Z,52.69
2023-05-24T08:49:53.536Z,50.63
2023-05-24T08:50:53.531Z,50.74
2023-05-24T08:51:58.539Z,50.94
2023-05-24T08:52:53.500Z,49.42
2023-05-24T08:53:53.507Z,49.42
2023-05-24T08:54:53.478Z,49.62
2023-05-24T08:55:53.477Z,48.99
2023-05-24T08:56:53.467Z,48.99
2023-05-24T08:57:53.446Z,49.30
2023-05-24T08:58:53.437Z,48.65
2023-05-24T08:59:53.456Z,47.55
2023-05-24T09:00:53.428Z,46.84
2023-05-24T09:01:53.447Z,46.14
2023-05-24T09:02:58.447Z,47.75
2023-05-24T09:03:53.430Z,48.16
2023-05-24T09:04:53.387Z,47.53
2023-05-24T09:05:53.372Z,47.23
2023-05-24T09:06:53.344Z,46.72
2023-05-24T09:07:53.329Z,47.03
2023-05-24T09:08:53.322Z,46.62
2023-05-24T09:09:53.341Z,46.83
2023-05-24T09:10:55.498Z,46.62
2023-05-24T09:11:53.306Z,47.13
2023-05-24T09:12:53.302Z,46.62
2023-05-24T09:13:58.290Z,46.12
2023-05-24T09:14:53.265Z,46.72
2023-05-24T09:15:53.880Z,45.91
2023-05-24T09:16:53.255Z,45.94
2023-05-24T09:17:53.246Z,46.84
2023-05-24T09:18:53.234Z,46.34
2023-05-24T09:19:53.250Z,46.84
2023-05-24T09:20:53.464Z,47.05
2023-05-24T09:21:53.184Z,47.63
2023-05-24T09:22:53.160Z,46.92
2023-05-24T09:23:53.163Z,46.70
2023-05-24T09:24:58.179Z,46.09
2023-05-24T09:25:53.130Z,45.97
2023-05-24T09:26:53.124Z,45.97
2023-05-24T09:27:53.149Z,46.37
2023-05-24T09:28:53.119Z,45.69
2023-05-24T09:29:53.097Z,45.99
2023-05-24T09:30:53.194Z,45.57
2023-05-24T09:31:53.177Z,44.35
2023-05-24T09:32:53.134Z,44.17
2023-05-24T09:33:53.039Z,44.48
2023-05-24T09:34:53.026Z,43.26
2023-05-24T09:35:58.036Z,42.27
2023-05-24T09:36:53.017Z,43.37
2023-05-24T09:37:52.998Z,42.66
2023-05-24T09:38:52.986Z,43.57
2023-05-24T09:39:52.964Z,44.25
2023-05-24T09:40:52.959Z,44.35
2023-05-24T09:41:52.940Z,44.66
2023-05-24T09:42:52.975Z,44.11
2023-05-24T09:43:52.920Z,43.99
2023-05-24T09:44:52.912Z,43.37
2023-05-24T09:45:52.908Z,43.12
2023-05-24T09:46:58.052Z,43.85
2023-05-24T09:47:52.922Z,43.85
2023-05-24T09:48:52.903Z,42.94
2023-05-24T09:49:52.854Z,43.66
2023-05-24T09:50:52.840Z,44.17
2023-05-24T09:51:52.940Z,43.79
2023-05-24T09:52:52.824Z,44.62
2023-05-24T09:53:52.810Z,45.34
2023-05-24T09:54:52.827Z,45.06
2023-05-24T09:55:52.790Z,44.86
2023-05-24T09:56:52.807Z,45.34
2023-05-24T09:57:57.785Z,45.25
2023-05-24T09:58:52.778Z,45.25
2023-05-24T09:59:52.743Z,46.56
2023-05-24T10:00:52.767Z,45.14
2023-05-24T10:01:52.776Z,46.37
2023-05-24T10:02:53.776Z,46.07
2023-05-24T10:03:52.904Z,45.47
2023-05-24T10:04:52.925Z,45.99
2023-05-24T10:05:52.683Z,46.70
2023-05-24T10:06:52.690Z,46.17
2023-05-24T10:07:52.662Z,47.11
2023-05-24T10:08:57.674Z,46.80
2023-05-24T10:09:52.628Z,46.30
2023-05-24T10:10:52.628Z,47.03
2023-05-24T10:11:52.611Z,47.83
2023-05-24T10:12:52.613Z,47.74
2023-05-24T10:13:52.579Z,47.25
2023-05-24T10:14:52.579Z,47.75
2023-05-24T10:15:52.586Z,47.88
2023-05-24T10:16:52.601Z,48.16
2023-05-24T10:17:52.590Z,48.39
2023-05-24T10:18:52.555Z,48.26
2023-05-24T10:19:57.594Z,48.26
2023-05-24T10:20:52.842Z,48.08
2023-05-24T10:21:52.554Z,48.28
2023-05-24T10:22:52.492Z,48.08
2023-05-24T10:23:52.473Z,48.49
2023-05-24T10:24:52.479Z,48.06
2023-05-24T10:25:52.457Z,47.55
2023-05-24T10:26:52.441Z,48.39
2023-05-24T10:27:52.427Z,48.06
2023-05-24T10:28:52.453Z,47.15
2023-05-24T10:29:52.414Z,47.66
2023-05-24T10:30:57.448Z,47.38
2023-05-24T10:31:52.385Z,47.66
2023-05-24T10:32:52.390Z,46.44
2023-05-24T10:33:52.688Z,45.73
2023-05-24T10:34:52.486Z,46.04
2023-05-24T10:35:52.334Z,45.91
2023-05-24T10:36:52.342Z,46.22
2023-05-24T10:37:52.319Z,45.91
2023-05-24T10:38:52.328Z,46.22
2023-05-24T10:39:52.297Z,46.01
2023-05-24T10:40:52.459Z,45.61
2023-05-24T10:41:57.283Z,45.91
2023-05-24T10:42:52.269Z,46.09
2023-05-24T10:44:07.992Z,45.99
2023-05-24T10:44:52.245Z,46.30
2023-05-24T10:45:52.305Z,45.18
2023-05-24T10:46:52.324Z,45.37
2023-05-24T10:47:52.202Z,44.56
2023-05-24T10:48:52.225Z,43.93
2023-05-24T10:49:52.192Z,43.34
2023-05-24T10:50:52.251Z,43.93
2023-05-24T10:51:52.151Z,43.12
2023-05-24T10:52:57.161Z,42.40
2023-05-24T10:53:52.131Z,41.89
2023-05-24T10:55:03.247Z,41.71
2023-05-24T10:55:52.149Z,42.41
2023-05-24T10:56:52.109Z,41.69
2023-05-24T10:57:52.154Z,41.89
2023-05-24T10:58:52.100Z,42.07
2023-05-24T10:59:52.061Z,41.87
2023-05-24T11:00:52.432Z,40.66
2023-05-24T11:01:52.121Z,40.86
2023-05-24T11:02:52.085Z,40.78
2023-05-24T11:03:57.045Z,41.69
2023-05-24T11:04:52.012Z,40.88
2023-05-24T11:05:52.220Z,40.88
2023-05-24T11:06:52.109Z,41.36
2023-05-24T11:07:51.980Z,40.94
2023-05-24T11:08:51.958Z,41.42
2023-05-24T11:09:51.946Z,40.60
2023-05-24T11:10:51.936Z,39.56
2023-05-24T11:11:51.939Z,39.92
2023-05-24T11:12:51.946Z,39.26
2023-05-24T11:13:51.903Z,38.44
2023-05-24T11:14:56.914Z,37.42
2023-05-24T11:15:51.913Z,37.10
2023-05-24T11:16:52.106Z,36.18
2023-05-24T11:17:51.893Z,36.26
2023-05-24T11:18:51.856Z,36.16
2023-05-24T11:19:51.905Z,36.35
2023-05-24T11:20:51.932Z,36.36
2023-05-24T11:21:51.828Z,36.15
2023-05-24T11:22:51.854Z,36.25
2023-05-24T11:23:51.796Z,36.36
2023-05-24T11:24:51.832Z,36.07
2023-05-24T11:25:56.788Z,35.89
2023-05-24T11:26:51.798Z,37.00
2023-05-24T11:27:51.830Z,38.29
2023-05-24T11:28:51.738Z,35.76
2023-05-24T11:29:51.726Z,36.03
2023-05-24T11:30:51.776Z,34.43
2023-05-24T11:31:51.758Z,34.33
2023-05-24T11:32:51.724Z,34.63
2023-05-24T11:33:51.681Z,35.01
2023-05-24T11:34:51.685Z,34.61
2023-05-24T11:35:51.673Z,33.83
2023-05-24T11:36:51.676Z,34.73
2023-05-24T11:37:51.643Z,35.23
2023-05-24T11:38:56.668Z,34.66
2023-05-24T11:39:51.616Z,34.88
2023-05-24T11:40:51.616Z,35.50
2023-05-24T11:41:51.590Z,36.41
2023-05-24T11:42:51.610Z,36.63
2023-05-24T11:43:51.582Z,36.82
2023-05-24T11:44:51.589Z,36.41
2023-05-24T11:45:51.595Z,35.63
2023-05-24T11:46:51.539Z,35.83
2023-05-24T11:47:51.569Z,35.73
2023-05-24T11:48:51.539Z,34.99
2023-05-24T11:49:56.534Z,34.99
2023-05-24T11:50:51.900Z,34.98
2023-05-24T11:51:51.505Z,34.86
2023-05-24T11:52:51.475Z,35.25
2023-05-24T11:53:53.121Z,34.44
2023-05-24T11:54:51.586Z,33.51
2023-05-24T11:55:51.481Z,34.14
2023-05-24T11:56:51.428Z,34.11
2023-05-24T11:57:51.417Z,34.50
2023-05-24T11:58:51.419Z,33.48
2023-05-24T11:59:51.400Z,32.97
2023-05-24T12:00:51.415Z,32.36
2023-05-24T12:01:51.374Z,32.55
2023-05-24T12:02:57.341Z,31.95
2023-05-24T12:03:51.543Z,32.23
2023-05-24T12:04:51.394Z,32.43
2023-05-24T12:05:51.333Z,32.73
2023-05-24T12:06:51.381Z,32.68
2023-05-24T12:07:51.312Z,32.75
2023-05-24T12:08:51.312Z,33.45
2023-05-24T12:09:51.286Z,33.22
2023-05-24T12:10:51.312Z,32.18
2023-05-24T12:11:51.304Z,31.19
2023-05-24T12:12:51.317Z,31.40
2023-05-24T12:13:56.275Z,32.62
2023-05-24T12:14:51.231Z,33.10
2023-05-24T12:15:53.286Z,32.30
2023-05-24T12:16:51.213Z,31.99
2023-05-24T12:17:51.248Z,32.22
2023-05-24T12:19:02.414Z,32.20
2023-05-24T12:19:51.218Z,32.10
2023-05-24T12:20:51.227Z,31.52
2023-05-24T12:21:53.413Z,31.90
2023-05-24T12:22:51.159Z,31.60
2023-05-24T12:23:51.136Z,31.30
2023-05-24T12:24:56.226Z,31.30
2023-05-24T12:25:51.118Z,31.79
2023-05-24T12:26:51.178Z,31.40
2023-05-24T12:27:54.178Z,31.52
2023-05-24T12:28:51.091Z,32.14
2023-05-24T12:29:51.069Z,32.56
2023-05-24T12:30:51.079Z,33.93
2023-05-24T12:31:51.090Z,34.88
2023-05-24T12:32:51.049Z,36.10
2023-05-24T12:33:53.583Z,36.82
2023-05-24T12:34:51.039Z,37.24
2023-05-24T12:35:56.027Z,37.35
2023-05-24T12:36:51.027Z,37.65
2023-05-24T12:37:50.999Z,37.77
2023-05-24T12:38:50.976Z,38.90
2023-05-24T12:39:53.087Z,39.52
2023-05-24T12:41:07.416Z,39.72
2023-05-24T12:41:51.951Z,39.64
2023-05-24T12:42:50.979Z,38.93
2023-05-24T12:43:50.927Z,39.03
2023-05-24T12:44:50.898Z,39.86
2023-05-24T12:45:53.526Z,39.56
2023-05-24T12:46:56.037Z,40.16
2023-05-24T12:47:50.940Z,40.36
2023-05-24T12:48:50.919Z,40.38
2023-05-24T12:49:50.863Z,39.78
2023-05-24T12:50:50.843Z,39.98
2023-05-24T12:51:50.835Z,40.28
2023-05-24T12:52:50.811Z,39.98
2023-05-24T12:53:50.800Z,40.18
2023-05-24T12:54:50.802Z,39.88
2023-05-24T12:55:50.796Z,39.98
2023-05-24T12:56:52.892Z,39.78
2023-05-24T12:57:50.760Z,40.10
2023-05-24T12:58:50.824Z,39.70
2023-05-24T12:59:55.756Z,41.20
2023-05-24T13:00:50.780Z,40.72
2023-05-24T13:01:50.725Z,41.42
2023-05-24T13:02:50.735Z,41.55
2023-05-24T13:03:50.693Z,41.25
2023-05-24T13:04:50.705Z,41.85
2023-05-24T13:05:50.767Z,41.45
2023-05-24T13:06:50.682Z,42.44
2023-05-24T13:07:50.649Z,41.02
2023-05-24T13:08:50.633Z,40.42
2023-05-24T13:09:50.630Z,40.52
2023-05-24T13:10:55.629Z,40.32
2023-05-24T13:11:50.594Z,40.40
2023-05-24T13:12:50.605Z,39.79
2023-05-24T13:13:50.583Z,39.79
2023-05-24T13:14:52.661Z,40.12
2023-05-24T13:15:50.556Z,39.81
2023-05-24T13:16:50.622Z,39.72
2023-05-24T13:17:50.654Z,39.31
2023-05-24T13:18:50.561Z,39.21
2023-05-24T13:19:50.557Z,36.59
2023-05-24T13:20:50.554Z,36.61
2023-05-24T13:21:55.521Z,37.62
2023-05-24T13:22:50.476Z,38.73
2023-05-24T13:23:50.475Z,39.01
2023-05-24T13:24:50.467Z,39.61
2023-05-24T13:25:50.439Z,40.12
2023-05-24T13:26:53.001Z,40.01
2023-05-24T13:27:50.429Z,39.92
2023-05-24T13:29:21.685Z,40.82
2023-05-24T13:30:00.905Z,39.81
2023-05-24T13:30:50.470Z,39.79
2023-05-24T13:31:50.476Z,40.42
2023-05-24T13:32:55.468Z,41.00
2023-05-24T13:33:50.362Z,40.60
2023-05-24T13:34:50.344Z,40.40
2023-05-24T13:35:50.330Z,40.40
2023-05-24T13:36:50.334Z,40.80
2023-05-24T13:37:50.315Z,40.80
2023-05-24T13:38:56.629Z,40.50
2023-05-24T13:39:50.307Z,40.70
2023-05-24T13:40:50.267Z,40.82
2023-05-24T13:41:50.314Z,41.33
2023-05-24T13:42:50.280Z,40.62
2023-05-24T13:43:55.260Z,39.81
2023-05-24T13:44:50.227Z,40.22
2023-05-24T13:45:50.226Z,40.20
2023-05-24T13:46:50.269Z,40.10
2023-05-24T13:47:50.245Z,39.70
2023-05-24T13:48:50.215Z,39.92
2023-05-24T13:49:50.170Z,39.70
2023-05-24T13:50:50.166Z,40.00
2023-05-24T13:51:50.160Z,40.32
2023-05-24T13:52:50.146Z,40.72
2023-05-24T13:53:50.133Z,40.72
2023-05-24T13:54:55.187Z,40.60
2023-05-24T13:55:50.103Z,40.50
2023-05-24T13:56:50.117Z,39.92
2023-05-24T13:57:52.061Z,40.42
2023-05-24T13:58:50.091Z,40.01
2023-05-24T13:59:50.056Z,40.22
2023-05-24T14:00:50.076Z,41.22
2023-05-24T14:01:50.134Z,41.20
2023-05-24T14:02:50.277Z,40.50
2023-05-24T14:03:50.036Z,39.59
2023-05-24T14:04:50.014Z,39.90
2023-05-24T14:05:55.131Z,39.79
2023-05-24T14:06:50.009Z,39.31
2023-05-24T14:07:50.003Z,39.72
2023-05-24T14:08:49.959Z,40.01
2023-05-24T14:09:49.957Z,40.01
2023-05-24T14:10:49.991Z,40.10
2023-05-24T14:11:49.921Z,40.72
2023-05-24T14:13:03.427Z,40.82
2023-05-24T14:15:50.157Z,40.40
2023-05-24T14:16:54.981Z,40.80
2023-05-24T14:17:49.897Z,40.20
2023-05-24T14:18:49.874Z,40.10
2023-05-24T14:19:49.896Z,40.10
2023-05-24T14:20:49.827Z,40.20
2023-05-24T14:21:49.825Z,39.59
2023-05-24T14:22:49.815Z,39.19
2023-05-24T14:23:49.802Z,39.39
2023-05-24T14:24:49.831Z,39.29
2023-05-24T14:25:49.786Z,39.39
2023-05-24T14:26:49.757Z,39.70
2023-05-24T14:27:54.766Z,40.12
2023-05-24T14:28:49.736Z,39.81
2023-05-24T14:29:49.731Z,40.62
2023-05-24T14:30:49.719Z,39.81
2023-05-24T14:31:49.918Z,39.81
2023-05-24T14:32:49.746Z,39.61
2023-05-24T14:33:49.692Z,39.61
2023-05-24T14:34:49.706Z,39.72
2023-05-24T14:35:49.656Z,39.61
2023-05-24T14:36:49.647Z,39.83
2023-05-24T14:37:49.631Z,39.73
2023-05-24T14:38:54.655Z,39.92
2023-05-24T14:39:49.634Z,39.92
2023-05-24T14:40:49.632Z,40.12
2023-05-24T14:41:49.584Z,39.83
2023-05-24T14:42:49.606Z,39.53
2023-05-24T14:43:49.573Z,39.83
2023-05-24T14:44:49.552Z,40.23
2023-05-24T14:45:49.628Z,40.44
2023-05-24T14:46:49.542Z,40.74
2023-05-24T14:47:49.545Z,40.44
2023-05-24T14:48:49.522Z,39.53
2023-05-24T14:49:54.543Z,39.94
2023-05-24T14:50:49.485Z,39.94
2023-05-24T14:51:49.472Z,41.05
2023-05-24T14:52:49.471Z,40.92
2023-05-24T14:53:49.461Z,39.81
2023-05-24T14:54:49.446Z,40.01
2023-05-24T14:55:49.433Z,40.23
2023-05-24T14:56:49.418Z,39.95
2023-05-24T14:57:49.433Z,40.25
2023-05-24T14:58:49.394Z,40.66
2023-05-24T14:59:49.397Z,40.25
2023-05-24T15:00:54.441Z,40.86
2023-05-24T15:01:49.628Z,40.86
2023-05-24T15:02:49.454Z,41.36
2023-05-24T15:03:49.389Z,40.86
2023-05-24T15:04:49.344Z,40.05
2023-05-24T15:05:49.346Z,40.36
2023-05-24T15:06:49.324Z,41.16
2023-05-24T15:07:49.315Z,40.05
2023-05-24T15:08:49.281Z,40.28
2023-05-24T15:09:49.281Z,40.05
2023-05-24T15:10:49.288Z,41.08
2023-05-24T15:11:54.280Z,39.77
2023-05-24T15:12:49.268Z,40.37
2023-05-24T15:13:49.225Z,40.48
2023-05-24T15:14:49.213Z,40.28
2023-05-24T15:15:49.215Z,40.58
2023-05-24T15:16:49.279Z,40.68
2023-05-24T15:17:49.253Z,40.96
2023-05-24T15:18:49.190Z,40.68
2023-05-24T15:19:49.195Z,40.37
2023-05-24T15:20:49.395Z,40.37
2023-05-24T15:21:49.168Z,40.58
2023-05-24T15:22:54.153Z,40.37
2023-05-24T15:23:49.116Z,41.08
2023-05-24T15:24:49.119Z,41.08
2023-05-24T15:25:49.102Z,41.50
2023-05-24T15:26:49.086Z,41.41
2023-05-24T15:27:49.083Z,42.32
2023-05-24T15:28:49.065Z,42.11
2023-05-24T15:29:49.052Z,42.01
2023-05-24T15:30:49.114Z,41.81
2023-05-24T15:31:49.096Z,42.29
2023-05-24T15:32:49.126Z,41.89
2023-05-24T15:33:54.027Z,42.19
2023-05-24T15:34:48.992Z,41.87
2023-05-24T15:35:48.994Z,42.07
2023-05-24T15:36:49.076Z,41.67
2023-05-24T15:37:49.002Z,41.16
2023-05-24T15:38:48.951Z,41.16
2023-05-24T15:39:48.938Z,41.16
2023-05-24T15:40:48.935Z,40.36
2023-05-24T15:41:48.912Z,40.66
2023-05-24T15:42:48.908Z,40.68
2023-05-24T15:43:48.888Z,40.68
2023-05-24T15:44:53.935Z,40.78
2023-05-24T15:45:48.890Z,41.39
2023-05-24T15:46:48.879Z,41.18
2023-05-24T15:47:48.873Z,41.28
2023-05-24T15:48:48.859Z,41.49
2023-05-24T15:49:48.837Z,41.59
2023-05-24T15:51:25.481Z,42.19
2023-05-24T15:52:03.488Z,41.89
2023-05-24T15:52:48.792Z,42.82
2023-05-24T15:53:48.804Z,42.52
2023-05-24T15:54:48.795Z,42.32
2023-05-24T15:55:53.783Z,42.72
2023-05-24T15:56:48.746Z,42.70
2023-05-24T15:57:48.731Z,42.70
2023-05-24T15:58:48.736Z,42.41
2023-05-24T15:59:48.719Z,42.72
2023-05-24T16:00:48.708Z,42.72
2023-05-24T16:01:48.749Z,42.21
2023-05-24T16:02:48.763Z,43.23
2023-05-24T16:03:48.837Z,42.72
2023-05-24T16:04:48.650Z,42.32
2023-05-24T16:05:48.638Z,41.91
2023-05-24T16:06:53.678Z,42.11
2023-05-24T16:07:48.617Z,42.01
2023-05-24T16:08:48.607Z,43.12
2023-05-24T16:09:48.657Z,42.52
2023-05-24T16:10:48.580Z,41.91
2023-05-24T16:11:48.589Z,42.61
2023-05-24T16:12:48.582Z,42.54
2023-05-24T16:13:48.566Z,42.84
2023-05-24T16:14:48.530Z,42.72
2023-05-24T16:15:48.527Z,42.43
2023-05-24T16:16:48.517Z,42.74
2023-05-24T16:17:53.573Z,43.34
2023-05-24T16:18:48.493Z,43.55
2023-05-24T16:19:48.478Z,43.24
2023-05-24T16:20:48.586Z,42.84
2023-05-24T16:21:48.503Z,43.44
2023-05-24T16:22:48.480Z,43.43
2023-05-24T16:23:48.442Z,43.93
2023-05-24T16:24:48.430Z,43.44
2023-05-24T16:25:48.430Z,43.93
2023-05-24T16:26:48.428Z,43.44
2023-05-24T16:27:48.390Z,44.25
2023-05-24T16:28:53.402Z,44.46
2023-05-24T16:29:48.362Z,44.05
2023-05-24T16:30:48.368Z,43.44
2023-05-24T16:31:48.445Z,43.24
2023-05-24T16:32:48.385Z,43.24
2023-05-24T16:33:48.320Z,44.05
2023-05-24T16:34:56.640Z,43.75
2023-05-24T16:35:48.297Z,45.06
2023-05-24T16:36:48.327Z,44.76
2023-05-24T16:37:48.272Z,44.66
2023-05-24T16:38:48.264Z,44.46
2023-05-24T16:39:53.280Z,44.96
2023-05-24T16:40:48.261Z,44.98
2023-05-24T16:41:48.268Z,44.46
2023-05-24T16:42:48.234Z,45.08
2023-05-24T16:43:48.214Z,45.16
2023-05-24T16:44:48.198Z,45.37
2023-05-24T16:45:48.207Z,45.37
2023-05-24T16:46:48.277Z,45.67
2023-05-24T16:47:48.326Z,45.18
2023-05-24T16:48:48.195Z,45.69
2023-05-24T16:49:48.136Z,44.96
2023-05-24T16:50:53.164Z,46.48
2023-05-24T16:51:48.146Z,45.26
2023-05-24T16:52:48.103Z,45.67
2023-05-24T16:53:48.101Z,45.69
2023-05-24T16:54:48.115Z,45.69
2023-05-24T16:55:48.088Z,46.30
2023-05-24T16:56:48.070Z,45.69
2023-05-24T16:57:48.160Z,46.30
2023-05-24T16:58:48.065Z,46.60
2023-05-24T16:59:50.623Z,46.09
2023-05-24T17:00:48.545Z,47.11
2023-05-24T17:01:53.513Z,47.00
2023-05-24T17:02:48.067Z,46.80
2023-05-24T17:03:48.104Z,46.40
2023-05-24T17:04:47.997Z,47.31
2023-05-24T17:05:47.957Z,46.58
2023-05-24T17:06:47.964Z,47.49
2023-05-24T17:07:47.954Z,46.58
2023-05-24T17:08:47.926Z,46.68
2023-05-24T17:09:47.921Z,47.28
2023-05-24T17:10:47.907Z,46.88
2023-05-24T17:11:50.048Z,46.88
2023-05-24T17:12:52.932Z,46.68
2023-05-24T17:13:47.873Z,46.98
2023-05-24T17:14:47.871Z,47.61
2023-05-24T17:15:47.929Z,47.61
2023-05-24T17:16:47.835Z,47.99
2023-05-24T17:17:47.846Z,47.19
2023-05-24T17:18:47.836Z,47.59
2023-05-24T17:19:47.798Z,47.31
2023-05-24T17:20:48.110Z,47.79
2023-05-24T17:21:47.781Z,47.71
2023-05-24T17:22:47.768Z,47.49
2023-05-24T17:23:52.805Z,47.31
2023-05-24T17:24:47.789Z,47.28
2023-05-24T17:25:47.731Z,47.59
2023-05-24T17:26:47.739Z,47.71
2023-05-24T17:27:47.734Z,47.51
2023-05-24T17:28:47.741Z,47.20
2023-05-24T17:29:47.692Z,47.61
2023-05-24T17:30:47.702Z,47.00
2023-05-24T17:31:47.746Z,47.20
2023-05-24T17:32:47.691Z,47.11
2023-05-24T17:33:47.647Z,48.11
2023-05-24T17:34:52.689Z,48.11
2023-05-24T17:35:47.619Z,48.02
2023-05-24T17:36:47.647Z,47.81
2023-05-24T17:37:47.603Z,47.63
2023-05-24T17:38:47.580Z,47.74
2023-05-24T17:39:47.571Z,48.14
2023-05-24T17:40:47.591Z,47.94
2023-05-24T17:41:47.572Z,47.53
2023-05-24T17:42:47.569Z,47.53
2023-05-24T17:43:47.521Z,47.74
2023-05-24T17:44:47.543Z,47.94
2023-05-24T17:45:52.565Z,47.13
2023-05-24T17:46:47.551Z,47.63
2023-05-24T17:47:47.561Z,47.74
2023-05-24T17:48:47.493Z,47.63
2023-05-24T17:49:47.451Z,46.52
2023-05-24T17:50:47.445Z,47.13
2023-05-24T17:51:47.501Z,46.52
2023-05-24T17:52:47.435Z,46.62
2023-05-24T17:53:47.407Z,48.11
2023-05-24T17:54:47.412Z,47.83